CheckWX is a tool to help pilots better visualize weather data.  It is not intended as a substitute for an official pre-flight weather briefing.

07:53:56 UTC

SLTR METAR
Teniente Av. Jorge Henrich Arauz Airport
Trinidad, Bolivia
Current

9 hours ago

SLTR 112300Z 34004KT 9999 SCT020 BKN080 26/23 Q1006
Observed
Dec-11 @ 23:00 UTC
Wind
  • 340° at 4 KTS
Visibility
10,000+ meters
Flight Rules
VFR
Cloud Levels
  • Scattered at 2,000' AGL
  • Broken at 8,000' AGL
Temperature
26°C / 79°F
Dewpoint
23°C / 73°F
Humidity
84%
Altimeter
29.7" Hg
Pressure
1005.92 hPa
Previous

10 hours ago

SLTR 112200Z 32008KT 9999 FEW015 BKN080 27/24 Q1005
Observed
Dec-11 @ 22:00 UTC
Wind
  • 320° at 8 KTS
Visibility
10,000+ meters
Flight Rules
VFR
Cloud Levels
  • Few at 1,500' AGL
  • Broken at 8,000' AGL
Temperature
27°C / 81°F
Dewpoint
24°C / 75°F
Heat Index
31°C / 87°F
Humidity
84%
Altimeter
29.68" Hg
Pressure
1004.92 hPa
Previous

11 hours ago

SLTR 112100Z 31010KT 8000 VCSH FEW015 FEW020CB BKN080 27/24 Q1005
Observed
Dec-11 @ 21:00 UTC
Wind
  • 310° at 10 KTS
Visibility
8,000 meters
Flight Rules
MVFR
Cloud Levels
  • Few at 1,500' AGL
  • Few at 2,000' AGL
  • Broken at 8,000' AGL
Temperature
27°C / 81°F
Dewpoint
24°C / 75°F
Heat Index
31°C / 87°F
Humidity
84%
Altimeter
29.68" Hg
Pressure
1004.92 hPa